createdAt,value
2023-08-19T00:01:53.870Z,101112.66
2023-08-19T00:04:21.772Z,101117.02
2023-08-19T00:06:49.929Z,101116.27
2023-08-19T00:09:17.953Z,101118.69
2023-08-19T00:11:45.879Z,101125.98
2023-08-19T00:14:13.779Z,101130.35
2023-08-19T00:16:41.690Z,101126.98
2023-08-19T00:19:12.497Z,101123.60
2023-08-19T00:21:40.505Z,40448.46
2023-08-19T00:24:08.604Z,40451.94
2023-08-19T00:26:36.509Z,20224.26
2023-08-19T00:29:04.797Z,20224.34
2023-08-19T00:31:32.860Z,60676.74
2023-08-19T00:34:00.896Z,101127.63
2023-08-19T00:36:28.955Z,60674.56
2023-08-19T00:39:00.526Z,80898.55
2023-08-19T00:41:28.652Z,80898.18
2023-08-19T00:43:57.119Z,20223.63
2023-08-19T00:46:25.592Z,101121.30
2023-08-19T00:48:54.202Z,101123.06
2023-08-19T00:51:22.927Z,101117.80
2023-08-19T00:53:51.009Z,101115.23
2023-08-19T00:56:19.514Z,101111.98
2023-08-19T00:58:49.959Z,101112.98
2023-08-19T01:01:18.723Z,101108.38
2023-08-19T01:03:46.744Z,101103.70
2023-08-19T01:06:25.799Z,101102.70
2023-08-19T01:09:10.856Z,101099.36
2023-08-19T01:12:11.197Z,101099.23
2023-08-19T01:14:52.186Z,101091.70
2023-08-19T01:17:26.827Z,101091.95
2023-08-19T01:19:55.647Z,101090.52
2023-08-19T01:22:35.961Z,101092.29
2023-08-19T01:25:04.765Z,101092.24
2023-08-19T01:27:32.817Z,101094.18
2023-08-19T01:30:00.869Z,101095.71
2023-08-19T01:32:30.104Z,101091.20
2023-08-19T01:34:58.387Z,101090.34
2023-08-19T01:38:06.985Z,101091.32
2023-08-19T01:40:36.114Z,101093.65
2023-08-19T01:43:06.631Z,101095.33
2023-08-19T01:45:35.751Z,101084.98
2023-08-19T01:48:06.023Z,101080.59
2023-08-19T01:50:34.273Z,101077.79
2023-08-19T01:53:02.442Z,101082.23
2023-08-19T01:55:31.485Z,40429.36
2023-08-19T01:57:59.452Z,96164.28
2023-08-19T02:00:27.287Z,101074.10
2023-08-19T02:02:55.325Z,80856.20
2023-08-19T02:05:23.596Z,101065.90
2023-08-19T02:07:52.110Z,101071.10
2023-08-19T02:10:19.992Z,101066.10
2023-08-19T02:12:47.986Z,101060.59
2023-08-19T02:15:15.867Z,101060.42
2023-08-19T02:17:45.427Z,101064.52
2023-08-19T02:20:15.391Z,101063.20
2023-08-19T02:22:43.336Z,101063.86
2023-08-19T02:25:11.155Z,101062.64
2023-08-19T02:27:39.986Z,101062.44
2023-08-19T02:30:08.570Z,101059.63
2023-08-19T02:32:39.505Z,101063.81
2023-08-19T02:35:08.152Z,101064.98
2023-08-19T02:37:36.321Z,101062.73
2023-08-19T02:40:05.820Z,101059.43
2023-08-19T02:42:33.933Z,101055.45
2023-08-19T02:45:01.944Z,101055.50
2023-08-19T02:47:30.310Z,101055.88
2023-08-19T02:49:58.533Z,101061.60
2023-08-19T02:52:26.463Z,101066.42
2023-08-19T02:54:54.310Z,101060.05
2023-08-19T02:57:22.390Z,101054.16
2023-08-19T02:59:50.517Z,101056.67
2023-08-19T03:02:20.644Z,80846.17
2023-08-19T03:04:52.171Z,20210.96
2023-08-19T03:07:20.147Z,-1.00
2023-08-19T03:09:48.797Z,-1.00
2023-08-19T03:12:16.601Z,-1.00
2023-08-19T03:14:44.567Z,-1.00
2023-08-19T03:17:12.509Z,-1.00
2023-08-19T03:19:40.837Z,-1.00
2023-08-19T03:22:08.778Z,-1.00
2023-08-19T03:24:36.678Z,-1.00
2023-08-19T03:27:05.235Z,-1.00
2023-08-19T03:29:33.370Z,-1.00
2023-08-19T03:32:01.298Z,-1.00
2023-08-19T03:34:29.366Z,-1.00
2023-08-19T03:36:58.288Z,-1.00
2023-08-19T03:39:27.374Z,-1.00
2023-08-19T03:41:55.266Z,-1.00
2023-08-19T03:44:23.136Z,-1.00
2023-08-19T03:46:52.987Z,-1.00
2023-08-19T03:49:22.693Z,-1.00
2023-08-19T03:51:51.227Z,-1.00
2023-08-19T03:54:19.230Z,-1.00
2023-08-19T03:56:47.244Z,-1.00
2023-08-19T03:59:15.669Z,-1.00
2023-08-19T04:01:44.434Z,-1.00
2023-08-19T04:04:12.484Z,-1.00
2023-08-19T04:06:40.434Z,-1.00
2023-08-19T04:09:08.949Z,-1.00
2023-08-19T04:11:40.405Z,-1.00
2023-08-19T04:14:08.292Z,-1.00
2023-08-19T04:16:40.106Z,-1.00
2023-08-19T04:19:09.077Z,-1.00
2023-08-19T04:21:37.176Z,-1.00
2023-08-19T04:24:05.716Z,-1.00
2023-08-19T04:26:33.836Z,-1.00
2023-08-19T04:29:01.824Z,-1.00
2023-08-19T04:31:32.457Z,-1.00
2023-08-19T04:34:03.515Z,-1.00
2023-08-19T04:36:31.371Z,-1.00
2023-08-19T04:39:00.452Z,-1.00
2023-08-19T04:41:29.794Z,-1.00
2023-08-19T04:44:00.240Z,-1.00
2023-08-19T04:46:28.254Z,-1.00
2023-08-19T04:48:56.487Z,-1.00
2023-08-19T04:51:24.549Z,-1.00
2023-08-19T04:53:53.252Z,-1.00
2023-08-19T04:56:21.100Z,-1.00
2023-08-19T04:58:48.979Z,-1.00
2023-08-19T05:01:17.113Z,-1.00
2023-08-19T05:03:45.974Z,-1.00
2023-08-19T05:06:14.218Z,-1.00
2023-08-19T05:08:44.819Z,-1.00
2023-08-19T05:11:14.445Z,-1.00
2023-08-19T05:13:43.988Z,-1.00
2023-08-19T05:16:14.369Z,-1.00
2023-08-19T05:18:42.805Z,-1.00
2023-08-19T05:21:10.715Z,-1.00
2023-08-19T05:23:40.125Z,-1.00
2023-08-19T05:26:08.697Z,-1.00
2023-08-19T05:28:36.676Z,-1.00
2023-08-19T05:31:04.726Z,-1.00
2023-08-19T05:33:32.709Z,-1.00
2023-08-19T05:36:00.745Z,-1.00
2023-08-19T05:38:28.691Z,-1.00
2023-08-19T05:40:58.717Z,-1.00
2023-08-19T05:43:26.710Z,-1.00
2023-08-19T05:45:54.774Z,-1.00
2023-08-19T05:48:22.823Z,-1.00
2023-08-19T05:50:50.724Z,-1.00
2023-08-19T05:53:18.657Z,-1.00
2023-08-19T05:55:46.491Z,-1.00
2023-08-19T05:58:15.840Z,-1.00
2023-08-19T06:00:44.464Z,-1.00
2023-08-19T06:03:12.561Z,-1.00
2023-08-19T06:05:40.540Z,-1.00
2023-08-19T06:08:08.363Z,-1.00
2023-08-19T06:10:37.058Z,-1.00
2023-08-19T06:13:04.858Z,-1.00
2023-08-19T06:15:32.781Z,-1.00
2023-08-19T06:18:01.102Z,-1.00
2023-08-19T06:20:29.101Z,-1.00
2023-08-19T06:22:57.115Z,-1.00
2023-08-19T06:25:25.128Z,-1.00
2023-08-19T06:27:53.148Z,-1.00
2023-08-19T06:30:21.447Z,-1.00
2023-08-19T06:32:50.681Z,-1.00
2023-08-19T06:35:19.004Z,-1.00
2023-08-19T06:37:54.220Z,-1.00
2023-08-19T06:40:25.820Z,-1.00
2023-08-19T06:42:54.258Z,-1.00
2023-08-19T06:45:24.457Z,-1.00
2023-08-19T06:47:54.530Z,-1.00
2023-08-19T06:50:23.173Z,-1.00
2023-08-19T06:52:51.568Z,-1.00
2023-08-19T06:55:19.848Z,-1.00
2023-08-19T06:58:04.815Z,-1.00
2023-08-19T07:00:35.354Z,-1.00
2023-08-19T07:03:05.700Z,-1.00
2023-08-19T07:05:36.627Z,-1.00
2023-08-19T07:08:07.644Z,-1.00
2023-08-19T07:10:35.808Z,-1.00
2023-08-19T07:13:04.586Z,-1.00
2023-08-19T07:15:32.905Z,-1.00
2023-08-19T07:18:02.277Z,-1.00
2023-08-19T07:20:30.284Z,-1.00
2023-08-19T07:23:01.534Z,-1.00
2023-08-19T07:25:30.445Z,-1.00
2023-08-19T07:28:04.045Z,-1.00
2023-08-19T07:30:32.273Z,-1.00
2023-08-19T07:33:01.198Z,-1.00
2023-08-19T07:35:29.365Z,-1.00
2023-08-19T07:37:57.515Z,-1.00
2023-08-19T07:40:25.520Z,-1.00
2023-08-19T07:42:53.444Z,-1.00
2023-08-19T07:45:21.344Z,-1.00
2023-08-19T07:47:49.562Z,-1.00
2023-08-19T07:50:17.490Z,-1.00
2023-08-19T07:52:45.317Z,-1.00
2023-08-19T07:55:14.946Z,-1.00
2023-08-19T07:57:42.739Z,-1.00
2023-08-19T08:00:11.159Z,-1.00
2023-08-19T08:02:42.539Z,-1.00
2023-08-19T08:05:10.893Z,-1.00
2023-08-19T08:07:38.854Z,-1.00
2023-08-19T08:10:07.113Z,-1.00
2023-08-19T08:12:34.925Z,-1.00
2023-08-19T08:15:05.073Z,-1.00
2023-08-19T08:17:33.584Z,-1.00
2023-08-19T08:20:01.856Z,-1.00
2023-08-19T08:22:29.736Z,-1.00
2023-08-19T08:24:58.064Z,-1.00
2023-08-19T08:27:26.440Z,-1.00
2023-08-19T08:29:54.443Z,-1.00
2023-08-19T08:32:22.535Z,-1.00
2023-08-19T08:34:50.543Z,-1.00
2023-08-19T08:37:19.676Z,-1.00
2023-08-19T08:39:47.520Z,-1.00
2023-08-19T08:42:16.886Z,-1.00
2023-08-19T08:44:51.368Z,-1.00
2023-08-19T08:47:21.837Z,-1.00
2023-08-19T08:49:50.787Z,-1.00
2023-08-19T08:52:19.877Z,-1.00
2023-08-19T08:54:53.080Z,-1.00
2023-08-19T08:57:21.502Z,-1.00
2023-08-19T08:59:50.044Z,-1.00
2023-08-19T09:02:19.140Z,-1.00
2023-08-19T09:04:47.953Z,-1.00
2023-08-19T09:07:32.539Z,-1.00
2023-08-19T09:10:00.532Z,-1.00
2023-08-19T09:12:33.047Z,-1.00
2023-08-19T09:15:04.981Z,-1.00
2023-08-19T09:17:34.424Z,-1.00
2023-08-19T09:20:04.998Z,-1.00
2023-08-19T09:22:33.391Z,-1.00
2023-08-19T09:25:06.923Z,-1.00
2023-08-19T09:27:34.829Z,-1.00
2023-08-19T09:30:02.757Z,-1.00
2023-08-19T09:32:33.094Z,-1.00
2023-08-19T09:35:17.948Z,-1.00
2023-08-19T09:37:45.887Z,-1.00
2023-08-19T09:40:21.381Z,-1.00
2023-08-19T09:42:50.278Z,-1.00
2023-08-19T09:45:20.109Z,-1.00
2023-08-19T09:47:52.603Z,-1.00
2023-08-19T09:50:23.397Z,-1.00
2023-08-19T09:53:00.234Z,-1.00
2023-08-19T09:55:31.048Z,-1.00
2023-08-19T09:57:59.385Z,-1.00
2023-08-19T10:00:27.581Z,-1.00
2023-08-19T10:02:56.196Z,-1.00
2023-08-19T10:05:27.932Z,-1.00
2023-08-19T10:08:02.744Z,-1.00
2023-08-19T10:10:32.933Z,-1.00
2023-08-19T10:13:02.446Z,-1.00
2023-08-19T10:15:33.859Z,-1.00
2023-08-19T10:18:08.364Z,-1.00
2023-08-19T10:20:38.371Z,-1.00
2023-08-19T10:23:08.816Z,-1.00
2023-08-19T10:25:40.679Z,-1.00
2023-08-19T10:28:23.862Z,-1.00
2023-08-19T10:31:11.806Z,-1.00
2023-08-19T10:33:45.620Z,-1.00
2023-08-19T10:36:17.574Z,-1.00
2023-08-19T10:38:55.239Z,-1.00
2023-08-19T10:41:30.541Z,-1.00
2023-08-19T10:44:00.335Z,-1.00
2023-08-19T10:46:33.484Z,-1.00
2023-08-19T10:49:06.310Z,-1.00
2023-08-19T10:51:53.120Z,-1.00
2023-08-19T10:55:01.142Z,-1.00
2023-08-19T10:57:29.139Z,-1.00
2023-08-19T10:59:59.562Z,-1.00
2023-08-19T11:02:29.648Z,-1.00
2023-08-19T11:04:59.465Z,-1.00
2023-08-19T11:07:27.673Z,-1.00
2023-08-19T11:09:56.002Z,-1.00
2023-08-19T11:12:24.841Z,-1.00
2023-08-19T11:14:56.530Z,-1.00
2023-08-19T11:17:29.935Z,-1.00
2023-08-19T11:19:59.715Z,-1.00
2023-08-19T11:22:27.523Z,-1.00
2023-08-19T11:24:55.277Z,-1.00
2023-08-19T11:27:23.177Z,-1.00
2023-08-19T11:29:51.194Z,-1.00
2023-08-19T11:32:20.985Z,-1.00
2023-08-19T11:34:49.110Z,-1.00
2023-08-19T11:37:17.994Z,-1.00
2023-08-19T11:39:46.521Z,-1.00
2023-08-19T11:42:14.745Z,-1.00
2023-08-19T11:44:44.483Z,-1.00
2023-08-19T11:47:13.522Z,-1.00
2023-08-19T11:49:45.111Z,-1.00
2023-08-19T11:52:20.823Z,-1.00
2023-08-19T11:55:01.906Z,-1.00
2023-08-19T11:57:37.315Z,-1.00
2023-08-19T12:00:06.587Z,-1.00
2023-08-19T12:02:45.677Z,-1.00
2023-08-19T12:05:22.256Z,-1.00
2023-08-19T12:07:50.310Z,-1.00
2023-08-19T12:10:18.222Z,-1.00
2023-08-19T12:13:00.099Z,-1.00
2023-08-19T12:15:28.346Z,-1.00
2023-08-19T12:17:58.108Z,-1.00
2023-08-19T12:20:26.052Z,-1.00
2023-08-19T12:22:53.978Z,-1.00
2023-08-19T12:25:21.979Z,-1.00
2023-08-19T12:27:49.928Z,-1.00
2023-08-19T12:30:17.757Z,-1.00
2023-08-19T12:32:45.738Z,-1.00
2023-08-19T12:35:13.557Z,-1.00
2023-08-19T12:37:41.887Z,-1.00
2023-08-19T12:40:11.119Z,-1.00
2023-08-19T12:42:48.175Z,-1.00
2023-08-19T12:45:16.849Z,-1.00
2023-08-19T12:47:46.111Z,-1.00
2023-08-19T12:50:16.743Z,-1.00
2023-08-19T12:52:45.128Z,-1.00
2023-08-19T12:55:15.954Z,-1.00
2023-08-19T12:57:44.771Z,-1.00
2023-08-19T13:00:14.074Z,-1.00
2023-08-19T13:02:43.056Z,-1.00
2023-08-19T13:05:12.447Z,-1.00
2023-08-19T13:07:41.244Z,-1.00
2023-08-19T13:10:10.434Z,-1.00
2023-08-19T13:12:40.914Z,-1.00
2023-08-19T13:15:10.293Z,-1.00
2023-08-19T13:17:38.173Z,-1.00
2023-08-19T13:20:07.458Z,-1.00
2023-08-19T13:22:35.769Z,-1.00
2023-08-19T13:25:07.818Z,-1.00
2023-08-19T13:27:35.670Z,-1.00
2023-08-19T13:30:07.015Z,-1.00
2023-08-19T13:32:36.969Z,-1.00
2023-08-19T13:35:07.588Z,-1.00
2023-08-19T13:37:35.589Z,-1.00
2023-08-19T13:40:06.911Z,-1.00
2023-08-19T13:42:34.953Z,-1.00
2023-08-19T13:45:05.552Z,-1.00
2023-08-19T13:47:33.741Z,-1.00
2023-08-19T13:50:02.131Z,-1.00
2023-08-19T13:52:38.525Z,-1.00
2023-08-19T13:55:08.516Z,-1.00
2023-08-19T13:57:37.392Z,-1.00
2023-08-19T14:00:17.650Z,-1.00
2023-08-19T14:02:46.106Z,-1.00
2023-08-19T14:05:16.836Z,-1.00
2023-08-19T14:07:47.088Z,-1.00
2023-08-19T14:10:18.091Z,-1.00
2023-08-19T14:12:47.578Z,-1.00
2023-08-19T14:15:15.828Z,-1.00
2023-08-19T14:17:44.207Z,-1.00
2023-08-19T14:20:12.816Z,-1.00
2023-08-19T14:22:41.530Z,-1.00
2023-08-19T14:25:11.673Z,-1.00
2023-08-19T14:27:40.179Z,-1.00
2023-08-19T14:30:08.461Z,-1.00
2023-08-19T14:32:36.491Z,-1.00
2023-08-19T14:35:04.855Z,-1.00
2023-08-19T14:37:32.895Z,-1.00
2023-08-19T14:40:02.051Z,-1.00
2023-08-19T14:42:30.035Z,-1.00
2023-08-19T14:44:58.053Z,-1.00
2023-08-19T14:47:25.844Z,-1.00
2023-08-19T14:49:53.763Z,-1.00
2023-08-19T14:52:23.099Z,-1.00
2023-08-19T14:54:51.010Z,-1.00
2023-08-19T14:57:19.020Z,-1.00
2023-08-19T14:59:46.905Z,-1.00
2023-08-19T15:02:14.891Z,-1.00
2023-08-19T15:04:42.983Z,-1.00
2023-08-19T15:07:10.839Z,-1.00
2023-08-19T15:09:38.884Z,-1.00
2023-08-19T15:12:06.973Z,-1.00
2023-08-19T15:14:35.204Z,-1.00
2023-08-19T15:17:04.050Z,-1.00
2023-08-19T15:19:31.955Z,-1.00
2023-08-19T15:22:02.576Z,-1.00
2023-08-19T15:24:31.228Z,-1.00
2023-08-19T15:26:59.192Z,-1.00
2023-08-19T15:29:27.096Z,-1.00
2023-08-19T15:31:54.943Z,-1.00
2023-08-19T15:34:23.092Z,-1.00
2023-08-19T15:36:50.884Z,-1.00
2023-08-19T15:39:18.691Z,-1.00
2023-08-19T15:41:46.775Z,-1.00
2023-08-19T15:44:14.758Z,-1.00
2023-08-19T15:46:42.663Z,-1.00
2023-08-19T15:49:10.519Z,-1.00
2023-08-19T15:51:41.836Z,-1.00
2023-08-19T15:54:10.306Z,-1.00
2023-08-19T15:56:38.288Z,-1.00
2023-08-19T15:59:06.362Z,-1.00
2023-08-19T16:01:34.294Z,-1.00
2023-08-19T16:04:02.208Z,-1.00
2023-08-19T16:06:31.290Z,-1.00
2023-08-19T16:08:59.304Z,-1.00
2023-08-19T16:11:27.222Z,-1.00
2023-08-19T16:13:55.284Z,-1.00
2023-08-19T16:16:23.400Z,-1.00
2023-08-19T16:18:52.620Z,-1.00
2023-08-19T16:21:21.146Z,-1.00
2023-08-19T16:23:49.081Z,-1.00
2023-08-19T16:26:17.036Z,-1.00
2023-08-19T16:28:44.893Z,-1.00
2023-08-19T16:31:14.555Z,-1.00
2023-08-19T16:33:42.401Z,-1.00
2023-08-19T16:36:10.582Z,-1.00
2023-08-19T16:38:38.512Z,-1.00
2023-08-19T16:41:09.192Z,-1.00
2023-08-19T16:43:38.025Z,-1.00
2023-08-19T16:46:06.053Z,-1.00
2023-08-19T16:48:34.804Z,-1.00
2023-08-19T16:51:05.182Z,-1.00
2023-08-19T16:53:33.063Z,-1.00
2023-08-19T16:56:02.168Z,-1.00
2023-08-19T16:58:30.198Z,-1.00
2023-08-19T17:01:04.960Z,-1.00
2023-08-19T17:03:34.401Z,-1.00
2023-08-19T17:06:04.176Z,-1.00
2023-08-19T17:08:35.139Z,-1.00
2023-08-19T17:11:03.612Z,-1.00
2023-08-19T17:13:37.556Z,-1.00
2023-08-19T17:16:13.175Z,-1.00
2023-08-19T17:18:44.318Z,-1.00
2023-08-19T17:21:17.882Z,-1.00
2023-08-19T17:23:46.818Z,-1.00
2023-08-19T17:26:20.338Z,-1.00
2023-08-19T17:28:55.486Z,-1.00
2023-08-19T17:31:23.450Z,-1.00
2023-08-19T17:33:52.128Z,-1.00
2023-08-19T17:36:20.063Z,-1.00
2023-08-19T17:38:47.905Z,-1.00
2023-08-19T17:41:15.884Z,-1.00
2023-08-19T17:43:43.782Z,-1.00
2023-08-19T17:46:11.732Z,-1.00
2023-08-19T17:48:39.787Z,-1.00
2023-08-19T17:51:07.985Z,-1.00
2023-08-19T17:53:35.985Z,-1.00
2023-08-19T17:56:04.200Z,-1.00
2023-08-19T17:58:32.265Z,-1.00
2023-08-19T18:01:00.841Z,-1.00
2023-08-19T18:03:28.895Z,-1.00
2023-08-19T18:05:57.352Z,-1.00
2023-08-19T18:08:25.346Z,-1.00
2023-08-19T18:10:53.264Z,-1.00
2023-08-19T18:13:21.205Z,-1.00
2023-08-19T18:15:49.253Z,-1.00
2023-08-19T18:18:17.423Z,-1.00
2023-08-19T18:20:45.396Z,-1.00
2023-08-19T18:23:13.425Z,-1.00
2023-08-19T18:25:41.351Z,-1.00
2023-08-19T18:28:09.246Z,-1.00
2023-08-19T18:30:38.935Z,-1.00
2023-08-19T18:33:06.883Z,-1.00
2023-08-19T18:35:34.718Z,-1.00
2023-08-19T18:38:02.758Z,-1.00
2023-08-19T18:40:30.763Z,-1.00
2023-08-19T18:42:59.068Z,-1.00
2023-08-19T18:45:27.027Z,-1.00
2023-08-19T18:48:05.676Z,-1.00
2023-08-19T18:50:35.808Z,-1.00
2023-08-19T18:53:04.661Z,-1.00
2023-08-19T18:55:34.662Z,-1.00
2023-08-19T18:58:02.429Z,-1.00
2023-08-19T19:00:30.532Z,-1.00
2023-08-19T19:03:00.202Z,-1.00
2023-08-19T19:05:28.295Z,-1.00
2023-08-19T19:07:59.118Z,-1.00
2023-08-19T19:10:26.997Z,-1.00
2023-08-19T19:12:54.940Z,-1.00
2023-08-19T19:15:22.953Z,-1.00
2023-08-19T19:17:55.050Z,-1.00
2023-08-19T19:20:24.173Z,-1.00
2023-08-19T19:22:53.172Z,-1.00
2023-08-19T19:25:22.339Z,-1.00
2023-08-19T19:27:50.506Z,-1.00
2023-08-19T19:30:22.483Z,-1.00
2023-08-19T19:32:51.208Z,-1.00
2023-08-19T19:35:20.514Z,-1.00
2023-08-19T19:37:49.136Z,-1.00
2023-08-19T19:40:17.912Z,-1.00
2023-08-19T19:42:46.502Z,-1.00
2023-08-19T19:45:14.522Z,-1.00
2023-08-19T19:47:44.537Z,-1.00
2023-08-19T19:50:13.010Z,-1.00
2023-08-19T19:52:41.111Z,-1.00
2023-08-19T19:55:09.852Z,-1.00
2023-08-19T19:57:38.019Z,-1.00
2023-08-19T20:00:09.181Z,-1.00
2023-08-19T20:02:38.409Z,-1.00
2023-08-19T20:05:06.645Z,-1.00
2023-08-19T20:07:35.019Z,-1.00
2023-08-19T20:12:35.477Z,-1.00
2023-08-19T20:15:03.975Z,-1.00
2023-08-19T20:17:31.946Z,-1.00
2023-08-19T20:20:00.001Z,-1.00
2023-08-19T20:23:42.543Z,-1.00
2023-08-19T20:26:10.696Z,-1.00
2023-08-19T20:28:38.568Z,-1.00
2023-08-19T20:31:06.510Z,-1.00
2023-08-19T20:33:34.478Z,-1.00
2023-08-19T20:36:02.488Z,-1.00
2023-08-19T20:38:30.412Z,-1.00
2023-08-19T20:40:58.436Z,-1.00
2023-08-19T20:43:26.412Z,-1.00
2023-08-19T20:45:55.172Z,-1.00
2023-08-19T20:48:23.609Z,-1.00
2023-08-19T20:50:51.534Z,-1.00
2023-08-19T20:53:19.476Z,-1.00
2023-08-19T20:55:47.407Z,-1.00
2023-08-19T20:58:15.353Z,-1.00
2023-08-19T21:00:45.266Z,-1.00
2023-08-19T21:03:13.315Z,-1.00
2023-08-19T21:05:41.643Z,-1.00
2023-08-19T21:08:09.777Z,-1.00
2023-08-19T21:10:37.638Z,-1.00
2023-08-19T21:13:05.556Z,-1.00
2023-08-19T21:15:33.532Z,-1.00
2023-08-19T21:18:01.639Z,-1.00
2023-08-19T21:20:29.742Z,-1.00
2023-08-19T21:22:57.916Z,-1.00
2023-08-19T21:25:25.738Z,-1.00
2023-08-19T21:27:53.546Z,-1.00
2023-08-19T21:30:21.503Z,-1.00
2023-08-19T21:32:49.353Z,-1.00
2023-08-19T21:35:17.290Z,-1.00
2023-08-19T21:37:45.224Z,-1.00
2023-08-19T21:40:13.726Z,-1.00
2023-08-19T21:42:45.961Z,-1.00
2023-08-19T21:45:13.983Z,-1.00
2023-08-19T21:47:41.965Z,-1.00
2023-08-19T21:50:10.338Z,-1.00
2023-08-19T21:52:38.236Z,-1.00
2023-08-19T21:55:06.885Z,-1.00
2023-08-19T21:57:34.957Z,-1.00
2023-08-19T22:00:04.526Z,-1.00
2023-08-19T22:02:34.504Z,-1.00
2023-08-19T22:05:02.696Z,-1.00
2023-08-19T22:07:30.680Z,-1.00
2023-08-19T22:09:58.773Z,-1.00
2023-08-19T22:12:26.780Z,-1.00
2023-08-19T22:14:54.737Z,-1.00
2023-08-19T22:17:22.598Z,-1.00
2023-08-19T22:19:50.417Z,-1.00
2023-08-19T22:22:18.416Z,-1.00
2023-08-19T22:24:46.366Z,-1.00
2023-08-19T22:27:16.565Z,-1.00
2023-08-19T22:29:44.380Z,-1.00
2023-08-19T22:32:12.168Z,-1.00
2023-08-19T22:34:40.181Z,-1.00
2023-08-19T22:37:08.130Z,-1.00
2023-08-19T22:39:36.142Z,-1.00
2023-08-19T22:42:04.184Z,-1.00
2023-08-19T22:44:32.120Z,-1.00
2023-08-19T22:47:01.107Z,-1.00
2023-08-19T22:49:29.044Z,-1.00
2023-08-19T22:52:00.077Z,-1.00
2023-08-19T22:54:27.980Z,-1.00
2023-08-19T22:56:55.828Z,-1.00
2023-08-19T22:59:23.658Z,-1.00
2023-08-19T23:01:51.605Z,-1.00
2023-08-19T23:04:19.405Z,-1.00
2023-08-19T23:06:47.322Z,-1.00
2023-08-19T23:09:15.174Z,-1.00
2023-08-19T23:11:43.410Z,-1.00
2023-08-19T23:14:11.309Z,-1.00
2023-08-19T23:16:39.409Z,-1.00
2023-08-19T23:19:09.971Z,-1.00
2023-08-19T23:21:45.940Z,-1.00
2023-08-19T23:24:15.290Z,-1.00
2023-08-19T23:26:43.115Z,-1.00
2023-08-19T23:29:10.999Z,-1.00
2023-08-19T23:31:38.933Z,-1.00
2023-08-19T23:34:06.971Z,-1.00
2023-08-19T23:36:35.187Z,-1.00
2023-08-19T23:39:03.337Z,-1.00
2023-08-19T23:41:31.316Z,-1.00
2023-08-19T23:43:59.227Z,-1.00
2023-08-19T23:46:27.069Z,-1.00
2023-08-19T23:48:55.422Z,-1.00
2023-08-19T23:51:26.758Z,-1.00
2023-08-19T23:53:57.850Z,-1.00
2023-08-19T23:56:27.490Z,-1.00
2023-08-19T23:58:55.783Z,-1.00
